Arkansas International Airport Blytheville US
ICAO: KBYH
IATA: BYH
Category: Medium
Scheduled Services: No

Elevation: 254 ft
TransAlt. 18000 ft.

Airport Communications:
MEMPHIS CNTR:134.65
CTAF/UNICOM:122.7

KBYH Zoom In..

Runways:

(A) RW 18 length 11602 ft width 150 ft
ILS 110.30 / hdg 179

(B) RW 36 length 11602 ft width 150 ft
---- / hdg 359

Location; KBYH
Day. 16 / Time. 21.50 Zulu
* Altimeter: 29.91
* Temperature: 34° c. 93.2°f.
* Wind from: 000° Speed 00 kn.
Dewpoint: 25° c.
Visibility: 10 Statute Miles.
Clouds: Few 3800 ft.
Clouds: Scattered 25000 ft.

KBYH 162150Z 00000KT 10SM FEW038 SCT250 34/25 A2991 RMK LAST


Wind - Calm.

 
 
jpsmedia.com for Web Design worldairports.se 2018   terms of use